Wednesday, November 21, 2018, 10:30 AM GMT
Back to Local

CWRK, Bancroft Automatic Weather Reporting System

Location: , , Canada Lat: 45.067
Local Time: 10:30 AM GMT (10:30 GMT) Lon: -77.867
Time Zone: GMT Elev: 1085 ft

Show me the last for .
Show Decoded

2018-11-21 10:00 METAR CWRK 211000Z AUTO 21003KT M05/M06 RMK AO1 3PAST HR SOG 18 5020 SLP081
                 P0001 T10471064 50007 =
2018-11-21 09:00 METAR CWRK 210900Z AUTO 19006KT M05/M07 RMK AO1 2PAST HR SOG 18 6041 SLP077
                 P0001 T10451074 50004 =
2018-11-21 08:00 METAR CWRK 210800Z AUTO 20007KT M07/M08 RMK AO1 SOG 18 8044 PK WND 18017/0742
                 SLP087 T10651075 50002 =
2018-11-21 07:00 METAR CWRK 210700Z AUTO 18005KT M08/M10 RMK AO1 2PAST HR SOG 17 8040 SLP103
                 P0001 T10811100 50002 =
2018-11-21 06:00 METAR CWRK 210600Z AUTO 17004KT M09/M11 RMK AO1 SOG 17 8032 SLP121 T10891113 =
2018-11-21 05:00 METAR CWRK 210500Z AUTO 18004KT M09/M12 RMK AO1 SOG 17 8023 SLP135 T10901116 =
2018-11-21 04:00 METAR CWRK 210400Z AUTO 17001KT M09/M12 RMK AO1 SOG 17 8015 SLP146 T10891119 =
2018-11-21 03:00 METAR CWRK 210300Z AUTO 21003KT M09/M12 RMK AO1 SOG 17 8009 SLP155 T10861121 =
2018-11-21 02:00 METAR CWRK 210200Z AUTO 24001KT M09/M12 RMK AO1 SOG 17 8002 SLP160 T10861122 =
2018-11-21 01:00 METAR CWRK 210100Z AUTO 24001KT M08/M12 RMK AO1 SOG 18 0004 SLP162 T10831124 =
2018-11-21 00:00 METAR CWRK 210000Z AUTO 25003KT M08/M12 RMK AO1 SOG 18 1011 SLP164 T10771121 =
2018-11-20 23:00 METAR CWRK 202300Z AUTO 27003KT M07/M11 RMK AO1 SOG 18 3011 SLP161 T10691112 =
2018-11-20 22:00 METAR CWRK 202200Z AUTO 27002KT M06/M10 RMK AO1 SOG 18 3008 SLP156 T10611103 =
2018-11-20 21:00 METAR CWRK 202100Z AUTO 29003KT M06/M10 RMK AO1 SOG 18 3002 SLP151 T10561102 =
2018-11-20 20:00 METAR CWRK 202000Z AUTO 36002KT M05/M10 RMK AO1 SOG 18 5005 SLP148 T10521103 =
2018-11-20 19:00 METAR CWRK 201900Z AUTO 35004KT M05/M10 RMK AO1 SOG 18 6013 SLP147 T10541103 =
2018-11-20 18:00 METAR CWRK 201800Z AUTO 36003KT M06/M11 RMK AO1 SOG 18 8012 SLP149 T10611108
                 50005 =
2018-11-20 17:00 METAR CWRK 201700Z AUTO 35004KT M07/M11 RMK AO1 SOG 18 8006 SLP153 T10701110
                 50005 =
2018-11-20 16:00 METAR CWRK 201600Z AUTO 33006KT M08/M12 RMK AO1 SOG 18 0004 SLP161 T10811115
                 50005 =
2018-11-20 15:00 METAR CWRK 201500Z AUTO 34005KT M08/M11 RMK AO1 SOG 19 1008 SLP162 T10831110
                 50005 =
2018-11-20 14:00 METAR CWRK 201400Z AUTO 36005KT M09/M11 RMK AO1 SOG 19 1010 SLP161 T10901114
                 50005 =
2018-11-20 13:00 METAR CWRK 201300Z AUTO 36004KT M09/M11 RMK AO1 5PAST HR SOG 16 1011 SLP157
                 P0002 T10911111 50005 =
2018-11-20 12:00 METAR CWRK 201200Z AUTO 35003KT M08/M10 RMK AO1 5PAST HR SOG 17 3006 SLP154
                 P0002 T10841104 50010 =
2018-11-20 11:00 METAR CWRK 201100Z AUTO 02005KT M08/M10 RMK AO1 SOG 17 5000 SLP149 T10781097
                 50004 =

Support USWX by starting your Amazon purchase here.